Time;durP1;ratioP1;P1;durP2;ratioP2;P2;SDS_P1;SDS_P2;PMS_P1;PMS_P2;Temp;Humidity;BMP_temperature;BMP_pressure;BME280_temperature;BME280_humidity;BME280_pressure;Samples;Min_cycle;Max_cycle;Signal;HPM_P1;HPM_P2
2021/04/14 00:00:47;;;;;;;13.65;6.12;;;;;;;5.11;55.14;101088.09;2202441;80;27589;-74
2021/04/14 00:03:50;;;;;;;11.90;5.25;;;;;;;5.11;55.08;101093.41;2203075;80;29720;-74
2021/04/14 00:07:04;;;;;;;18.95;5.90;;;;;;;5.09;55.15;101088.56;2175060;80;32020;-71
2021/04/14 00:10:10;;;;;;;16.17;5.40;;;;;;;5.07;55.25;101089.90;2202334;80;33120;-71
2021/04/14 00:13:19;;;;;;;;;;;;;;;5.06;55.30;101084.16;2204921;80;30815;-71
2021/04/14 00:16:26;;;;;;;17.25;5.20;;;;;;;5.07;55.47;101087.70;2176437;81;27625;-71
2021/04/14 00:19:30;;;;;;;13.60;5.90;;;;;;;5.05;55.48;101087.70;2176412;81;29705;-72
2021/04/14 00:22:34;;;;;;;14.35;5.85;;;;;;;5.03;55.44;101086.88;2123454;81;32085;-73
2021/04/14 00:25:42;;;;;;;16.05;6.17;;;;;;;5.01;55.57;101088.21;2146912;81;33959;-73
2021/04/14 00:28:44;;;;;;;21.57;5.60;;;;;;;5.02;55.70;101077.16;2146893;81;29565;-72
2021/04/14 00:31:47;;;;;;;19.02;6.62;;;;;;;5.01;55.71;101077.59;2175517;81;27890;-72
2021/04/14 00:34:50;;;;;;;16.17;5.80;;;;;;;5.00;55.73;101074.50;2179475;80;29723;-73
2021/04/14 00:37:54;;;;;;;15.35;6.33;;;;;;;5.00;55.69;101086.45;2186159;81;32047;-72
2021/04/14 00:41:08;;;;;;;15.63;6.83;;;;;;;4.99;55.93;101081.17;2186200;81;34101;-72
2021/04/14 00:44:11;;;;;;;19.12;6.83;;;;;;;4.98;56.05;101077.63;2185514;81;29736;-72
2021/04/14 00:47:17;;;;;;;16.20;6.72;;;;;;;4.95;56.00;101074.14;2186323;81;27918;-73
2021/04/14 00:50:26;;;;;;;15.35;5.97;;;;;;;4.93;56.00;101074.17;2187035;81;28825;-73
2021/04/14 00:53:29;;;;;;;12.53;5.87;;;;;;;4.92;56.14;101072.85;2187042;81;32113;-72
2021/04/14 00:56:32;;;;;;;16.10;6.70;;;;;;;4.91;56.27;101080.39;2187247;81;33959;-72
2021/04/14 00:59:35;;;;;;;18.30;6.67;;;;;;;4.89;56.38;101076.88;2186955;81;29836;-72
2021/04/14 01:02:38;;;;;;;15.32;5.72;;;;;;;4.87;56.40;101080.89;2187045;81;27880;-73
2021/04/14 01:05:43;;;;;;;14.68;7.15;;;;;;;4.85;56.42;101076.94;2187157;81;29724;-72
2021/04/14 01:08:46;;;;;;;19.30;6.42;;;;;;;4.83;56.59;101080.06;2161188;81;32057;-73
2021/04/14 01:11:50;;;;;;;13.05;5.42;;;;;;;4.82;56.53;101081.39;2187068;81;33934;-72
2021/04/14 01:14:52;;;;;;;13.68;6.00;;;;;;;4.79;56.52;101083.64;2136859;81;29743;-73
2021/04/14 01:17:57;;;;;;;19.73;6.55;;;;;;;4.77;56.68;101086.77;2186892;81;27700;-73
2021/04/14 01:21:02;;;;;;;16.12;6.08;;;;;;;4.76;57.01;101094.76;2187009;81;29698;-73
2021/04/14 01:24:10;;;;;;;11.43;5.62;;;;;;;4.74;56.91;101095.22;2186960;81;32084;-72
2021/04/14 01:30:28;;;;;;;11.10;5.37;;;;;;;4.69;57.01;101089.98;2028990;87;27630;-70
2021/04/14 01:33:32;;;;;;;14.63;5.10;;;;;;;4.69;57.05;101087.33;2029404;87;27679;-70
2021/04/14 01:36:35;;;;;;;17.85;5.50;;;;;;;4.69;57.22;101088.66;2051576;86;28836;-69
2021/04/14 01:39:37;;;;;;;14.90;5.22;;;;;;;4.69;57.17;101095.28;2052554;86;32472;-69
2021/04/14 01:42:39;;;;;;;11.90;5.30;;;;;;;4.67;57.41;101091.31;2027173;86;34054;-70
2021/04/14 01:45:45;;;;;;;11.45;5.33;;;;;;;4.66;57.39;101085.56;2020073;86;29791;-70
2021/04/14 01:48:48;;;;;;;13.25;5.03;;;;;;;4.65;57.41;101089.11;2004955;88;27623;-69
2021/04/14 01:51:50;;;;;;;13.58;4.97;;;;;;;4.64;57.39;101086.03;2030337;86;28836;-69
2021/04/14 01:54:53;;;;;;;18.60;5.45;;;;;;;4.65;57.43;101093.56;2046542;86;32042;-69
2021/04/14 01:57:59;;;;;;;14.07;5.70;;;;;;;4.64;57.52;101088.69;2037522;87;34259;-69
2021/04/14 02:01:07;;;;;;;11.30;4.03;;;;;;;4.64;57.50;101090.01;2037411;87;28906;-70
2021/04/14 02:04:10;;;;;;;14.28;5.30;;;;;;;4.62;57.41;101083.88;2046492;86;27726;-70
2021/04/14 02:07:12;;;;;;;11.95;5.15;;;;;;;4.62;57.66;101082.55;2037325;87;28852;-70
2021/04/14 02:10:15;;;;;;;13.10;4.30;;;;;;;4.62;57.61;101082.55;2037188;87;31093;-70
2021/04/14 02:13:25;;;;;;;12.70;4.45;;;;;;;4.60;57.56;101086.98;2043866;85;33130;-70
2021/04/14 02:16:27;;;;;;;10.50;4.22;;;;;;;4.62;57.69;101082.98;2037307;87;28852;-70
2021/04/14 02:19:29;;;;;;;10.40;4.15;;;;;;;4.61;57.83;101084.77;2036264;87;28360;-71
2021/04/14 02:22:31;;;;;;;12.85;4.17;;;;;;;4.61;57.79;101089.18;2038822;86;28895;-69
2021/04/14 02:25:33;;;;;;;12.78;4.30;;;;;;;4.60;57.73;101096.28;2037658;87;31468;-70
2021/04/14 02:28:36;;;;;;;9.95;4.15;;;;;;;4.59;57.84;101090.54;2037602;87;33937;-70
2021/04/14 02:31:38;;;;;;;12.93;4.40;;;;;;;4.60;57.88;101086.09;2037659;87;28879;-70
2021/04/14 02:34:40;;;;;;;9.70;4.28;;;;;;;4.59;58.02;101092.30;2056291;86;27759;-70
2021/04/14 02:37:42;;;;;;;10.45;4.65;;;;;;;4.58;58.01;101094.52;2054789;86;29767;-70
2021/04/14 02:40:44;;;;;;;15.38;4.35;;;;;;;4.56;58.15;101092.76;2049370;85;31255;-69
2021/04/14 02:43:49;;;;;;;13.32;4.62;;;;;;;4.56;58.29;101100.72;2046777;86;33634;-70
2021/04/14 02:46:51;;;;;;;10.35;3.00;;;;;;;4.56;58.23;101102.52;2051819;84;29292;-69
2021/04/14 02:49:53;;;;;;;10.38;4.67;;;;;;;4.56;58.35;101100.72;2052010;86;28157;-70
2021/04/14 02:52:56;;;;;;;16.35;5.33;;;;;;;4.55;58.38;101097.63;2041772;86;29023;-69
2021/04/14 02:55:58;;;;;;;10.88;4.17;;;;;;;4.54;58.43;101110.94;2057598;86;31144;-68
2021/04/14 02:59:01;;;;;;;32.28;14.85;;;;;;;4.54;58.41;101113.59;2057580;86;33188;-70
2021/04/14 03:02:03;;;;;;;15.03;5.42;;;;;;;4.54;58.49;101105.63;2042465;86;29588;-68
2021/04/14 03:05:08;;;;;;;12.28;4.95;;;;;;;4.55;58.70;101107.39;2056237;86;27730;-70
2021/04/14 03:08:10;;;;;;;14.58;4.67;;;;;;;4.54;58.68;101107.84;2057793;86;28812;-71
2021/04/14 03:11:12;;;;;;;12.63;5.15;;;;;;;4.54;58.67;101097.66;2047517;86;32128;-69
2021/04/14 03:14:14;;;;;;;19.85;4.97;;;;;;;4.53;58.76;101099.89;2050145;86;33219;-70
2021/04/14 03:17:18;;;;;;;14.20;4.97;;;;;;;4.54;58.80;101093.25;2057603;86;29154;-70
2021/04/14 03:20:20;;;;;;;13.95;5.00;;;;;;;4.54;58.82;101094.58;2054117;86;27586;-71
2021/04/14 03:23:23;;;;;;;15.05;5.00;;;;;;;4.54;58.79;101085.72;2042323;85;28900;-70
2021/04/14 03:26:25;;;;;;;17.52;5.28;;;;;;;4.53;58.89;101083.97;2051764;86;31164;-69
2021/04/14 03:29:27;;;;;;;16.73;5.08;;;;;;;4.52;59.01;101083.53;2043008;85;33278;-69
2021/04/14 03:32:29;;;;;;;11.90;5.22;;;;;;;4.51;59.01;101087.08;2041709;86;29202;-69
2021/04/14 03:35:31;;;;;;;15.20;5.45;;;;;;;4.51;58.90;101085.75;2041057;86;27584;-70
2021/04/14 03:38:33;;;;;;;15.40;4.62;;;;;;;4.50;59.11;101087.55;2041564;87;28881;-70
2021/04/14 03:41:36;;;;;;;14.47;5.12;;;;;;;4.47;59.05;101081.41;2041561;87;32069;-70
2021/04/14 03:44:38;;;;;;;15.72;5.55;;;;;;;4.45;59.08;101081.87;2041881;86;34127;-69
2021/04/14 03:47:40;;;;;;;17.73;6.05;;;;;;;4.43;59.15;101088.50;2041627;87;29158;-71
2021/04/14 03:50:42;;;;;;;15.43;5.65;;;;;;;4.42;59.28;101084.09;2041709;87;27655;-69
2021/04/14 03:53:44;;;;;;;14.90;5.10;;;;;;;4.41;59.28;101083.66;2041835;86;28879;-69
2021/04/14 03:56:46;;;;;;;10.93;4.85;;;;;;;4.38;59.31;101083.25;2038341;87;32114;-69
2021/04/14 03:59:48;;;;;;;19.07;6.22;;;;;;;4.39;59.40;101078.81;2061482;86;33572;-69
2021/04/14 04:02:50;;;;;;;18.50;5.42;;;;;;;4.40;59.64;101081.46;2067113;86;29228;-70
2021/04/14 04:05:54;;;;;;;19.30;5.92;;;;;;;4.43;59.61;101086.31;2068410;86;27757;-69
2021/04/14 04:08:56;;;;;;;15.45;5.62;;;;;;;4.45;59.59;101083.19;2068053;86;29681;-69
2021/04/14 04:11:58;;;;;;;19.40;7.42;;;;;;;4.45;59.62;101090.69;2067551;86;32198;-68
2021/04/14 04:15:00;;;;;;;13.28;5.17;;;;;;;4.47;59.74;101094.20;2067352;86;34109;-70
2021/04/14 04:18:02;;;;;;;11.63;4.75;;;;;;;4.49;59.73;101093.75;2067840;86;29164;-70
2021/04/14 04:21:07;;;;;;;15.00;6.00;;;;;;;4.51;59.75;101090.63;2068212;86;27716;-69
2021/04/14 04:24:09;;;;;;;18.25;6.10;;;;;;;4.54;59.88;101097.66;2062540;86;29739;-70
2021/04/14 04:27:11;;;;;;;11.50;5.65;;;;;;;4.56;59.77;101095.88;2027243;87;31163;-69
2021/04/14 04:30:14;;;;;;;17.95;5.53;;;;;;;4.57;59.85;101098.96;2041414;86;33122;-69
2021/04/14 04:33:19;;;;;;;15.10;6.55;;;;;;;4.56;59.83;101103.84;2041599;87;30472;-69
2021/04/14 04:36:21;;;;;;;;;;;;;;;4.58;59.96;101109.11;2044306;86;27740;-69
2021/04/14 04:39:23;;;;;;;13.95;5.53;;;;;;;4.59;60.08;101114.42;2041412;87;29435;-70
2021/04/14 04:42:25;;;;;;;14.87;5.33;;;;;;;4.60;60.07;101122.81;2041277;87;31619;-70
2021/04/14 04:45:30;;;;;;;19.30;4.80;;;;;;;4.61;60.03;101117.94;2041402;86;33126;-69
2021/04/14 04:48:32;;;;;;;17.50;5.15;;;;;;;4.66;60.26;101117.88;2040929;86;29258;-69
2021/04/14 04:51:34;;;;;;;11.70;5.03;;;;;;;4.69;60.36;101115.20;2041340;87;27669;-69
2021/04/14 04:54:37;;;;;;;11.95;6.03;;;;;;;4.73;60.23;101121.34;2041379;86;29728;-71
2021/04/14 04:57:38;;;;;;;13.40;5.20;;;;;;;4.75;60.35;101119.08;2041547;86;32158;-72
2021/04/14 05:00:41;;;;;;;10.48;4.47;;;;;;;4.77;60.36;101122.59;2040743;87;33142;-61
2021/04/14 05:03:44;;;;;;;11.33;4.17;;;;;;;4.80;60.45;101130.53;2041444;87;29167;-61
2021/04/14 05:06:46;;;;;;;9.70;4.00;;;;;;;4.82;60.45;101130.06;2041889;86;27734;-62
2021/04/14 05:09:48;;;;;;;15.00;4.17;;;;;;;4.85;60.43;101126.05;2054895;85;28853;-61
2021/04/14 05:12:52;;;;;;;11.45;4.50;;;;;;;4.91;60.50;101126.42;2044824;86;31619;-61
2021/04/14 05:15:54;;;;;;;10.72;4.60;;;;;;;4.94;60.50;101130.37;2048834;86;33121;-60
2021/04/14 05:18:56;;;;;;;12.20;4.37;;;;;;;4.99;60.41;101132.95;2055961;86;29182;-61
2021/04/14 05:21:58;;;;;;;11.35;3.75;;;;;;;5.05;60.41;101130.66;2049074;86;27715;-62
2021/04/14 05:25:00;;;;;;;15.18;4.97;;;;;;;5.11;60.28;101134.11;2041507;86;28831;-61
2021/04/14 05:28:06;;;;;;;19.02;5.47;;;;;;;5.16;60.35;101132.28;2041601;87;32312;-60
2021/04/14 05:31:07;;;;;;;14.73;3.30;;;;;;;5.23;60.30;101137.49;2047062;86;33213;-61
2021/04/14 05:34:09;;;;;;;14.00;4.90;;;;;;;5.30;60.33;101130.73;2037532;87;30078;-61
2021/04/14 05:37:11;;;;;;;13.25;5.37;;;;;;;5.40;60.14;101137.27;2056109;85;27712;-61
2021/04/14 05:40:15;;;;;;;18.23;5.45;;;;;;;5.44;60.05;101137.19;2057639;86;30199;-61
2021/04/14 05:43:22;;;;;;;15.32;5.00;;;;;;;5.49;59.92;101134.46;2039831;86;32057;-61
2021/04/14 05:46:24;;;;;;;11.63;3.92;;;;;;;5.57;60.03;101136.56;2049910;86;34006;-62
2021/04/14 05:49:26;;;;;;;12.40;4.60;;;;;;;5.62;59.84;101137.81;2054060;86;30715;-62
2021/04/14 05:52:28;;;;;;;14.73;5.22;;;;;;;5.61;59.67;101136.06;2037692;87;28007;-61
2021/04/14 05:55:31;;;;;;;16.70;5.05;;;;;;;5.66;59.65;101135.98;2044259;86;28844;-61
2021/04/14 05:58:33;;;;;;;12.50;4.75;;;;;;;5.69;59.63;101138.59;2052732;85;31160;-62
2021/04/14 06:01:37;;;;;;;13.45;4.65;;;;;;;5.72;59.42;101136.76;2059725;85;33133;-61
2021/04/14 06:04:39;;;;;;;13.95;5.22;;;;;;;5.75;59.48;101133.19;2037999;86;29182;-61
2021/04/14 06:07:41;;;;;;;13.45;4.55;;;;;;;5.81;59.54;101133.07;2052046;86;27706;-61
2021/04/14 06:10:44;;;;;;;12.55;4.17;;;;;;;5.83;59.40;101129.94;2050768;86;30007;-62
2021/04/14 06:13:47;;;;;;;20.37;9.20;;;;;;;5.82;59.31;101131.31;2043044;86;32538;-62
2021/04/14 06:16:49;;;;;;;12.55;4.28;;;;;;;5.78;59.31;101129.16;2057589;86;33127;-62
2021/04/14 06:19:52;;;;;;;16.80;6.22;;;;;;;5.73;59.32;101127.02;2057608;86;30056;-63
2021/04/14 06:22:57;;;;;;;13.05;4.65;;;;;;;5.70;59.61;101129.28;2042270;86;27634;-61
2021/04/14 06:29:06;;;;;;;16.27;4.62;;;;;;;5.73;59.96;101127.88;2051992;86;32041;-60
2021/04/14 06:32:09;;;;;;;14.58;3.87;;;;;;;5.76;59.86;101132.30;2041445;86;34291;-61
2021/04/14 06:35:14;;;;;;;12.13;3.80;;;;;;;5.79;59.78;101134.91;2030861;87;29175;-61
2021/04/14 06:38:21;;;;;;;16.95;5.80;;;;;;;5.77;59.69;101131.39;2031567;87;27846;-61
2021/04/14 06:41:42;;;;;;;13.13;4.70;;;;;;;5.74;59.75;101126.12;2030373;86;32899;-61
2021/04/14 06:44:52;;;;;;;;;;;;;;;5.73;59.76;101131.87;1986304;87;31277;-61
2021/04/14 06:48:36;;;;;;;12.35;3.62;;;;;;;5.77;59.84;101128.27;2023098;87;33984;-61
2021/04/14 06:52:04;;;;;;;16.32;4.00;;;;;;;5.86;59.77;101127.70;2023343;87;30084;-61
2021/04/14 06:55:18;;;;;;;11.65;3.87;;;;;;;6.05;59.71;101131.81;2031473;87;27780;-62
2021/04/14 06:58:23;;;;;;;16.00;5.75;;;;;;;6.19;59.29;101134.70;2031444;87;29725;-62
2021/04/14 07:01:39;;;;;;;17.02;5.05;;;;;;;6.32;59.35;101125.59;2031460;87;32173;-62
2021/04/14 07:05:05;;;;;;;17.60;4.92;;;;;;;6.44;59.04;101128.91;2030878;87;33171;-62
2021/04/14 07:08:21;;;;;;;14.98;4.40;;;;;;;6.60;59.13;101129.04;2031512;87;30026;-61
2021/04/14 07:11:26;;;;;;;16.10;5.08;;;;;;;6.71;58.76;101128.83;2031379;87;27682;-63
2021/04/14 07:14:29;;;;;;;18.15;4.47;;;;;;;6.73;58.59;101132.34;2031453;87;30044;-61
2021/04/14 07:18:13;;;;;;;9.28;3.98;;;;;;;6.70;58.41;101133.73;2031277;87;31156;-61
2021/04/14 07:21:30;;;;;;;16.02;4.65;;;;;;;6.69;58.04;101135.97;2030965;87;33126;-60
2021/04/14 07:24:52;;;;;;;19.07;4.83;;;;;;;6.72;58.48;101130.59;2031496;87;29969;-62
2021/04/14 07:28:06;;;;;;;15.53;4.60;;;;;;;6.88;58.43;101131.60;2031520;86;27852;-61
2021/04/14 07:31:21;;;;;;;10.30;4.08;;;;;;;7.04;58.41;101132.14;2032359;85;29005;-65
2021/04/14 07:35:10;;;;;;;16.42;4.33;;;;;;;7.25;58.09;101126.81;2039203;86;31083;-61
2021/04/14 07:38:27;;;;;;;11.28;4.47;;;;;;;7.48;57.84;101122.28;2061965;84;33123;-61
2021/04/14 07:42:09;;;;;;;13.25;3.87;;;;;;;7.84;57.51;101122.75;2063237;84;30133;-63
2021/04/14 07:45:29;;;;;;;17.07;5.12;;;;;;;8.21;57.35;101122.67;2059519;84;27892;-60
2021/04/14 07:48:38;;;;;;;13.08;3.83;;;;;;;8.67;56.84;101118.37;2057840;84;28876;-62
2021/04/14 07:51:39;;;;;;;15.08;4.30;;;;;;;9.03;56.37;101122.20;2060635;84;31212;-64
2021/04/14 07:54:50;;;;;;;11.38;4.10;;;;;;;9.30;55.70;101126.77;2043392;85;33131;-62
2021/04/14 07:57:52;;;;;;;16.07;4.30;;;;;;;9.56;55.26;101119.25;2039982;85;29248;-62
2021/04/14 08:00:56;;;;;;;13.55;3.55;;;;;;;9.81;54.04;101118.47;2043387;85;27755;-62
2021/04/14 08:04:32;;;;;;;14.18;4.15;;;;;;;9.85;54.04;101114.30;2039851;85;28988;-62
2021/04/14 08:07:43;;;;;;;9.65;3.62;;;;;;;9.95;54.25;101111.29;2042922;85;35401;-63
2021/04/14 08:11:10;;;;;;;8.38;3.58;;;;;;;10.15;53.59;101110.15;2043714;85;33124;-65
2021/04/14 08:14:26;;;;;;;9.85;3.85;;;;;;;10.28;52.63;101107.92;2042687;85;29172;-63
2021/04/14 08:17:29;;;;;;;13.40;4.75;;;;;;;10.42;53.29;101109.27;2043139;85;27698;-62
2021/04/14 08:20:35;;;;;;;14.40;4.50;;;;;;;10.64;53.25;101111.58;2044646;85;29389;-63
2021/04/14 08:23:38;;;;;;;17.40;3.55;;;;;;;10.96;52.80;101109.08;2060427;84;32044;-63
2021/04/14 08:26:50;;;;;;;12.43;3.60;;;;;;;11.22;52.21;101110.75;2031589;86;33146;-62
2021/04/14 08:30:20;;;;;;;14.55;4.00;;;;;;;11.43;51.52;101105.45;2045732;85;29113;-62
2021/04/14 08:33:25;;;;;;;17.07;4.30;;;;;;;11.65;51.68;101098.28;2031027;86;27706;-62
2021/04/14 08:36:32;;;;;;;10.70;3.08;;;;;;;11.82;50.59;101100.73;2028875;86;29778;-65
2021/04/14 08:39:41;;;;;;;17.02;4.95;;;;;;;11.98;50.04;101098.28;2032438;86;31171;-62
2021/04/14 08:42:44;;;;;;;14.55;3.85;;;;;;;12.06;49.23;101092.62;2032739;86;33202;-66
2021/04/14 08:45:46;;;;;;;10.10;3.08;;;;;;;11.96;49.10;101091.62;2031885;86;29189;-64
2021/04/14 08:49:03;;;;;;;14.35;3.47;;;;;;;11.83;48.96;101089.05;2033476;86;27758;-62
2021/04/14 08:52:11;;;;;;;13.53;3.50;;;;;;;11.76;49.37;101088.90;2063976;84;28893;-64
2021/04/14 08:55:16;;;;;;;11.53;4.22;;;;;;;11.73;48.98;101085.88;2067261;84;31149;-61
2021/04/14 08:58:20;;;;;;;12.98;3.75;;;;;;;11.74;48.32;101080.06;2042504;85;33993;-62
2021/04/14 09:01:24;;;;;;;14.15;3.50;;;;;;;11.63;48.83;101079.16;2067599;84;30028;-64
2021/04/14 09:04:28;;;;;;;10.55;3.17;;;;;;;11.54;48.37;101081.27;2043916;85;27820;-59
2021/04/14 09:07:34;;;;;;;11.75;3.12;;;;;;;11.47;48.35;101070.86;2058997;84;28855;-59
2021/04/14 09:10:42;;;;;;;9.75;3.27;;;;;;;11.42;48.06;101077.76;2037286;86;31163;-62
2021/04/14 09:13:53;;;;;;;7.60;2.50;;;;;;;11.42;48.05;101074.22;2031992;86;28474;-62
2021/04/14 09:17:07;;;;;;;10.72;2.92;;;;;;;11.41;47.91;101066.62;2032611;86;29166;-62
2021/04/14 09:20:23;;;;;;;12.33;3.47;;;;;;;11.25;46.86;101065.91;2036254;86;27720;-62
2021/04/14 09:23:30;;;;;;;15.45;3.17;;;;;;;11.09;47.81;101066.97;2034859;86;28815;-63
2021/04/14 09:26:39;;;;;;;9.85;2.83;;;;;;;10.96;47.37;101064.36;2007977;86;32115;-62
2021/04/14 09:30:11;;;;;;;12.30;3.15;;;;;;;10.70;47.14;101063.58;2007573;86;33208;-62
2021/04/14 09:33:19;;;;;;;11.80;4.12;;;;;;;10.46;46.75;101063.55;1983326;88;29186;-62
2021/04/14 09:36:43;;;;;;;9.33;3.37;;;;;;;10.20;47.19;101056.42;2248395;77;32289;-65
2021/04/14 09:39:57;;;;;;;11.35;4.10;;;;;;;10.01;47.96;101060.23;2215118;78;28284;-65
2021/04/14 09:42:59;;;;;;;15.85;5.37;;;;;;;9.98;48.10;101053.20;2215949;78;28865;-63
2021/04/14 09:46:13;;;;;;;21.23;11.18;;;;;;;9.93;48.21;101060.98;2204584;80;31148;-64
2021/04/14 09:49:17;;;;;;;15.43;4.58;;;;;;;9.97;48.28;101055.91;2193587;80;34070;-63
2021/04/14 09:52:34;;;;;;;12.43;3.77;;;;;;;9.92;48.27;101050.72;2196158;80;28537;-64
2021/04/14 09:55:59;;;;;;;8.80;3.83;;;;;;;9.90;48.44;101056.59;2130654;82;27719;-65
2021/04/14 09:59:29;;;;;;;9.03;3.60;;;;;;;9.83;48.82;101059.94;2195357;80;29769;-68
2021/04/14 10:02:35;;;;;;;15.25;4.80;;;;;;;9.71;48.29;101054.53;2199689;80;31141;-65
2021/04/14 10:05:38;;;;;;;11.33;3.90;;;;;;;9.65;48.45;101048.08;2204803;80;34445;-60
2021/04/14 10:08:43;;;;;;;13.08;3.35;;;;;;;9.74;48.62;101057.59;2204068;80;28867;-61
2021/04/14 10:11:46;;;;;;;11.35;3.52;;;;;;;9.88;48.13;101051.75;2199341;80;27791;-63
2021/04/14 10:14:55;;;;;;;14.05;3.85;;;;;;;9.87;48.19;101044.20;2199163;80;29478;-62
2021/04/14 10:18:06;;;;;;;19.25;4.25;;;;;;;9.95;48.10;101043.03;2212570;80;31189;-64
2021/04/14 10:21:18;;;;;;;8.25;3.40;;;;;;;9.97;48.48;101039.40;2205134;80;33282;-63
2021/04/14 10:24:21;;;;;;;9.15;2.95;;;;;;;10.01;47.71;101037.48;2192992;80;28874;-62
2021/04/14 10:27:24;;;;;;;11.55;3.35;;;;;;;10.03;48.21;101036.48;2206900;80;27710;-64
2021/04/14 10:30:28;;;;;;;9.80;3.95;;;;;;;10.09;47.79;101027.39;2143975;82;29268;-63
2021/04/14 10:33:31;;;;;;;9.93;3.58;;;;;;;10.13;47.71;101037.03;2200454;80;31108;-64
2021/04/14 10:36:41;;;;;;;9.23;3.30;;;;;;;10.19;48.01;101038.61;2191599;80;33122;-62
2021/04/14 10:39:45;;;;;;;8.38;2.98;;;;;;;10.13;47.29;101023.64;2182474;80;28868;-61
2021/04/14 10:42:49;;;;;;;8.97;3.10;;;;;;;10.01;46.85;101032.98;2165050;81;28102;-60
2021/04/14 10:46:15;;;;;;;8.98;4.05;;;;;;;9.85;46.67;101025.98;2177668;81;29323;-62
2021/04/14 10:49:24;;;;;;;;;;;;;;;9.79;46.44;101031.53;2192300;81;31122;-63
2021/04/14 10:52:28;;;;;;;9.35;4.08;;;;;;;9.86;47.31;101023.71;2187504;81;33484;-64
2021/04/14 10:55:39;;;;;;;10.20;2.87;;;;;;;9.90;47.32;101023.13;2188542;81;28920;-64
2021/04/14 10:58:52;;;;;;;8.20;3.17;;;;;;;9.84;46.62;101020.69;2272483;77;32380;-64
2021/04/14 11:01:54;;;;;;;15.60;3.98;;;;;;;9.60;46.39;101022.41;2238349;78;28163;-65
2021/04/14 11:04:58;;;;;;;9.05;3.40;;;;;;;9.42;47.23;101023.44;2228474;78;29867;-62
2021/04/14 11:08:00;;;;;;;14.23;5.08;;;;;;;9.34;47.52;101018.34;2238294;78;31906;-61
2021/04/14 11:11:03;;;;;;;10.50;4.50;;;;;;;9.38;48.03;101019.11;2256474;78;33105;-61
2021/04/14 11:14:11;;;;;;;13.18;4.90;;;;;;;9.51;47.82;101024.45;2233547;78;28608;-61
2021/04/14 11:17:31;;;;;;;12.65;2.92;;;;;;;9.66;47.87;101024.86;2221608;78;27911;-62
2021/04/14 11:24:17;;;;;;;10.58;3.45;;;;;;;9.86;47.12;101014.34;2222043;80;31361;-62
2021/04/14 11:27:24;;;;;;;17.27;3.75;;;;;;;9.66;46.54;101016.39;2237388;78;32492;-62
2021/04/14 11:30:28;;;;;;;10.53;4.67;;;;;;;9.40;47.07;101018.12;2259298;78;28859;-61
2021/04/14 11:33:35;;;;;;;15.53;7.12;;;;;;;9.19;47.70;101017.48;2262935;78;27544;-61
2021/04/14 11:36:38;;;;;;;12.47;4.30;;;;;;;9.07;48.12;101028.12;2261830;78;29767;-61
2021/04/14 11:40:03;;;;;;;10.45;4.03;;;;;;;8.97;48.55;101019.05;2262468;78;31291;-61
2021/04/14 11:43:29;;;;;;;9.55;4.47;;;;;;;8.97;48.55;101029.73;2262608;78;33881;-61
2021/04/14 11:46:42;;;;;;;12.43;3.77;;;;;;;9.11;48.85;101024.41;2343281;76;31183;-61
2021/04/14 11:49:44;;;;;;;12.25;4.58;;;;;;;9.25;48.93;101028.88;2303896;77;28146;-62
2021/04/14 11:52:56;;;;;;;11.73;4.55;;;;;;;9.39;48.82;101024.39;2303690;77;29233;-61
2021/04/14 11:56:02;;;;;;;9.95;4.15;;;;;;;9.56;48.86;101013.59;2276682;77;32001;-62
2021/04/14 11:59:09;;;;;;;12.33;4.30;;;;;;;9.74;48.35;101009.43;2261783;78;33069;-61
2021/04/14 12:02:22;;;;;;;14.60;6.83;;;;;;;10.00;48.67;101008.52;2259289;78;29079;-61
2021/04/14 12:05:24;;;;;;;13.05;4.45;;;;;;;10.29;48.30;101000.32;2261896;78;27606;-61
2021/04/14 12:08:29;;;;;;;9.33;3.67;;;;;;;10.50;47.03;100994.67;2261996;78;28817;-60
2021/04/14 12:11:31;;;;;;;;;;;;;;;10.50;46.59;101004.05;2264845;78;30406;-61
2021/04/14 12:14:33;;;;;;;9.00;4.03;;;;;;;10.37;46.39;101000.03;2262026;78;33080;-60
2021/04/14 12:17:36;;;;;;;11.00;4.60;;;;;;;10.17;46.92;100998.52;2261973;78;31181;-59
2021/04/14 12:20:38;;;;;;;11.35;4.87;;;;;;;9.97;46.81;101005.94;2282756;77;27986;-61
2021/04/14 12:23:41;;;;;;;10.10;3.98;;;;;;;9.74;47.43;101006.75;2285417;77;28993;-61
2021/04/14 12:26:45;;;;;;;11.57;4.12;;;;;;;9.57;47.78;101016.68;2286330;77;31167;-61
2021/04/14 12:29:49;;;;;;;11.88;4.03;;;;;;;9.48;48.74;101020.54;2286216;77;33277;-60
2021/04/14 12:32:55;;;;;;;16.90;7.65;;;;;;;9.53;48.83;101019.04;2286441;77;28858;-61
2021/04/14 12:35:59;;;;;;;16.50;10.32;;;;;;;9.40;48.54;101018.12;2286430;77;27653;-60
2021/04/14 12:39:02;;;;;;;21.70;9.00;;;;;;;9.46;48.92;101022.86;2286070;77;30240;-62
2021/04/14 12:42:05;;;;;;;10.20;5.10;;;;;;;9.33;48.34;101021.94;2285528;77;31155;-62
2021/04/14 12:45:40;;;;;;;10.05;3.75;;;;;;;9.19;48.34;101017.48;2285496;77;33135;-61
2021/04/14 12:48:43;;;;;;;10.85;4.20;;;;;;;8.99;48.50;101016.78;2165406;82;29061;-60
2021/04/14 12:51:55;;;;;;;12.20;6.25;;;;;;;8.82;48.77;101024.86;2175877;81;27727;-61
2021/04/14 12:54:57;;;;;;;14.35;5.42;;;;;;;8.69;49.45;101027.02;2183388;81;27967;-61
2021/04/14 12:58:00;;;;;;;13.75;5.67;;;;;;;8.51;50.94;101036.03;2183501;81;32571;-60
2021/04/14 13:01:04;;;;;;;17.17;6.83;;;;;;;8.29;51.52;101036.19;2183346;81;33539;-61
2021/04/14 13:04:29;;;;;;;20.40;8.23;;;;;;;8.17;52.15;101031.62;2183255;81;28936;-61
2021/04/14 13:08:06;;;;;;;22.60;12.00;;;;;;;8.27;52.43;101032.67;2251951;77;31087;-60
2021/04/14 13:11:20;;;;;;;14.03;7.28;;;;;;;8.33;52.53;101026.70;2217029;80;28172;-62
2021/04/14 13:14:23;;;;;;;15.35;7.50;;;;;;;8.55;52.40;101027.90;2217472;80;28904;-61
2021/04/14 13:17:32;;;;;;;14.55;7.37;;;;;;;8.79;52.67;101011.59;2217339;80;32025;-62
2021/04/14 13:20:35;;;;;;;21.33;7.28;;;;;;;8.97;51.96;101004.34;2216997;80;33176;-61
2021/04/14 13:23:46;;;;;;;12.30;6.17;;;;;;;9.15;51.94;101003.34;2190828;80;28541;-61
2021/04/14 13:27:41;;;;;;;13.43;5.50;;;;;;;9.28;51.55;100998.48;2164316;82;27740;-61
2021/04/14 13:30:58;;;;;;;6.90;4.17;;;;;;;9.12;50.99;101015.02;2165449;82;28853;-60
2021/04/14 13:34:26;;;;;;;10.78;4.50;;;;;;;8.96;51.19;101003.07;2165508;82;32533;-62
2021/04/14 13:37:35;;;;;;;12.85;5.03;;;;;;;8.96;51.29;100997.72;2131794;83;34014;-60
2021/04/14 13:40:48;;;;;;;8.25;5.10;;;;;;;9.00;50.64;100990.03;2131909;83;28862;-60
2021/04/14 13:44:08;;;;;;;10.57;5.97;;;;;;;9.12;50.35;100988.73;2341902;76;30413;-61
2021/04/14 13:47:25;;;;;;;11.43;6.72;;;;;;;9.11;49.79;100983.87;2301302;77;27645;-60
2021/04/14 13:50:34;;;;;;;10.08;5.33;;;;;;;9.14;49.89;100982.87;2302448;75;28849;-62
2021/04/14 13:53:39;;;;;;;8.68;4.53;;;;;;;9.20;50.06;100989.37;2264619;78;31151;-61
2021/04/14 13:56:47;;;;;;;9.95;6.00;;;;;;;9.19;49.17;100982.28;2264696;78;33278;-62
2021/04/14 14:00:03;;;;;;;11.65;6.40;;;;;;;9.17;49.26;100985.94;2228854;78;29777;-60
2021/04/14 14:03:06;;;;;;;10.63;6.22;;;;;;;9.11;50.30;100987.88;2259845;77;28305;-62
2021/04/14 14:06:18;;;;;;;19.50;6.83;;;;;;;9.03;51.43;100987.23;2249745;78;28762;-61
2021/04/14 14:09:28;;;;;;;14.28;6.30;;;;;;;8.95;51.80;100988.81;2306273;77;31559;-60
2021/04/14 14:12:35;;;;;;;15.80;7.53;;;;;;;8.91;51.90;100987.63;2306095;77;35404;-61
2021/04/14 14:15:49;;;;;;;17.98;8.43;;;;;;;8.91;52.07;100988.97;2306294;77;29563;-61
2021/04/14 14:19:02;;;;;;;9.10;5.15;;;;;;;8.88;52.52;100987.72;2296280;77;27792;-61
2021/04/14 14:22:08;;;;;;;6.55;4.33;;;;;;;8.87;52.06;100996.22;2306319;77;28879;-61
2021/04/14 14:25:11;;;;;;;;;;;;;;;8.79;52.16;100990.22;2309065;77;32508;-62
2021/04/14 14:28:13;;;;;;;11.97;7.22;;;;;;;8.72;52.91;100995.36;2306122;77;34029;-62
2021/04/14 14:31:18;;;;;;;10.45;6.42;;;;;;;8.72;52.85;100992.21;2305778;77;29476;-61
2021/04/14 14:34:20;;;;;;;9.58;6.40;;;;;;;8.69;52.76;100982.95;2306546;77;27711;-61
2021/04/14 14:37:37;;;;;;;10.95;5.90;;;;;;;8.66;52.80;100980.41;2306358;77;28805;-61
2021/04/14 14:40:44;;;;;;;14.07;8.30;;;;;;;8.63;52.96;100978.67;2294444;77;31199;-61
2021/04/14 14:43:51;;;;;;;10.95;5.75;;;;;;;8.68;53.23;100973.22;2299741;76;33958;-62